Time;durP1;ratioP1;P1;durP2;ratioP2;P2;SDS_P1;SDS_P2;PMS_P1;PMS_P2;Temp;Humidity;BMP_temperature;BMP_pressure;BME280_temperature;BME280_humidity;BME280_pressure;Samples;Min_cycle;Max_cycle;Signal;HPM_P1;HPM_P2
2021/10/17 00:01:21;;;;;;;29.77;23.52;;;6.70;99.90;;;;;;5073788;28;20032;-74
2021/10/17 00:03:46;;;;;;;33.17;24.17;;;6.70;99.90;;;;;;5073896;28;20020;-74
2021/10/17 00:06:12;;;;;;;30.65;22.77;;;6.60;99.90;;;;;;5066197;28;20021;-72
2021/10/17 00:08:38;;;;;;;31.27;22.40;;;6.60;99.90;;;;;;5049654;28;20024;-70
2021/10/17 00:11:03;;;;;;;28.70;23.05;;;6.60;99.90;;;;;;5071888;28;20020;-71
2021/10/17 00:13:29;;;;;;;29.08;22.42;;;6.60;99.90;;;;;;5066286;28;20028;-72
2021/10/17 00:15:54;;;;;;;31.17;22.52;;;6.60;99.90;;;;;;5069670;28;20036;-72
2021/10/17 00:18:21;;;;;;;27.95;22.17;;;6.50;99.90;;;;;;5069149;28;20172;-72
2021/10/17 00:20:46;;;;;;;30.98;23.58;;;6.50;99.90;;;;;;5051587;28;20029;-72
2021/10/17 00:23:12;;;;;;;28.95;23.30;;;6.60;99.90;;;;;;5069074;28;20074;-71
2021/10/17 00:25:37;;;;;;;30.80;22.50;;;6.60;99.90;;;;;;5079268;28;20023;-71
2021/10/17 00:28:03;;;;;;;30.55;23.65;;;6.60;99.90;;;;;;5082156;28;20052;-71
2021/10/17 00:30:29;;;;;;;29.70;22.00;;;6.60;99.90;;;;;;5084791;28;20035;-72
2021/10/17 00:32:55;;;;;;;27.33;20.70;;;6.60;99.90;;;;;;5072868;28;20033;-71
2021/10/17 00:35:21;;;;;;;28.00;22.35;;;6.60;99.90;;;;;;5059418;28;20029;-72
2021/10/17 00:37:46;;;;;;;31.88;22.67;;;6.70;99.90;;;;;;5074204;28;20016;-72
2021/10/17 00:40:18;;;;;;;38.28;28.33;;;6.70;99.90;;;;;;5063276;28;20460;-72
2021/10/17 00:42:46;;;;;;;30.10;22.65;;;6.70;99.90;;;;;;5072978;28;20012;-72
2021/10/17 00:45:15;;;;;;;25.08;20.20;;;6.70;99.90;;;;;;5072823;28;20024;-72
2021/10/17 00:47:40;;;;;;;28.30;20.20;;;6.70;99.90;;;;;;5072788;28;20013;-73
2021/10/17 00:50:08;;;;;;;22.55;19.40;;;6.80;99.90;;;;;;5069876;28;20032;-72
2021/10/17 00:52:35;;;;;;;23.63;19.17;;;6.70;99.90;;;;;;5070518;28;20541;-72
2021/10/17 00:55:02;;;;;;;25.33;19.98;;;6.80;99.90;;;;;;5072745;28;20120;-72
2021/10/17 00:57:28;;;;;;;23.85;18.77;;;6.80;99.90;;;;;;5072871;28;20025;-72
2021/10/17 00:59:53;;;;;;;23.70;18.48;;;6.80;99.90;;;;;;5072477;28;20032;-72
2021/10/17 01:02:19;;;;;;;22.98;19.00;;;6.80;99.90;;;;;;5051244;28;20021;-71
2021/10/17 01:04:45;;;;;;;23.52;18.85;;;6.80;99.90;;;;;;5053540;28;20495;-72
2021/10/17 01:07:10;;;;;;;23.98;18.00;;;6.80;99.90;;;;;;5072556;28;20024;-72
2021/10/17 01:09:38;;;;;;;23.15;17.90;;;6.80;99.90;;;;;;5072315;28;20486;-72
2021/10/17 01:12:05;;;;;;;22.92;18.85;;;6.80;99.90;;;;;;5071869;28;20091;-72
2021/10/17 01:14:31;;;;;;;25.63;18.92;;;6.80;99.90;;;;;;5073090;28;20449;-72
2021/10/17 01:16:57;;;;;;;22.15;19.35;;;6.80;99.90;;;;;;5074063;28;20092;-72
2021/10/17 01:19:23;;;;;;;24.52;19.83;;;6.70;99.90;;;;;;5057644;28;20154;-72
2021/10/17 01:21:49;;;;;;;24.13;18.80;;;6.70;99.90;;;;;;5072122;28;20388;-72
2021/10/17 01:24:17;;;;;;;25.95;19.85;;;6.70;99.90;;;;;;5069955;28;20036;-72
2021/10/17 01:26:44;;;;;;;22.95;18.67;;;6.60;99.90;;;;;;5050908;28;20024;-72
2021/10/17 01:29:10;;;;;;;23.90;18.80;;;6.60;99.90;;;;;;5071735;28;20455;-72
2021/10/17 01:31:38;;;;;;;26.17;20.52;;;6.50;99.90;;;;;;5070441;28;20028;-72
2021/10/17 01:34:05;;;;;;;25.10;19.55;;;6.50;99.90;;;;;;5070018;28;20431;-72
2021/10/17 01:36:31;;;;;;;27.75;21.40;;;6.40;99.90;;;;;;5069202;28;20488;-72
2021/10/17 01:38:56;;;;;;;26.48;21.13;;;6.50;99.90;;;;;;5071470;28;20036;-72
2021/10/17 01:41:22;;;;;;;24.52;19.67;;;6.40;99.90;;;;;;5071793;28;20028;-72
2021/10/17 01:43:48;;;;;;;25.20;20.40;;;6.40;99.90;;;;;;5062480;28;20017;-71
2021/10/17 01:46:14;;;;;;;25.58;20.00;;;6.30;99.90;;;;;;5090840;28;20058;-72
2021/10/17 01:48:39;;;;;;;21.42;19.13;;;6.30;99.90;;;;;;5080955;28;20028;-72
2021/10/17 01:51:05;;;;;;;22.42;18.63;;;6.40;99.90;;;;;;5077356;28;20032;-72
2021/10/17 01:53:30;;;;;;;26.10;20.20;;;6.30;99.90;;;;;;5071947;28;20032;-72
2021/10/17 01:55:58;;;;;;;21.17;18.70;;;6.40;99.90;;;;;;5075823;28;20044;-72
2021/10/17 01:58:23;;;;;;;29.20;18.52;;;6.30;99.90;;;;;;5089263;28;20079;-72
2021/10/17 02:00:50;;;;;;;23.58;18.90;;;6.40;99.90;;;;;;5063329;28;20036;-71
2021/10/17 02:03:16;;;;;;;22.25;18.77;;;6.60;99.90;;;;;;5072289;28;20020;-72
2021/10/17 02:05:41;;;;;;;24.40;18.27;;;6.50;99.90;;;;;;5072030;28;20024;-72
2021/10/17 02:08:07;;;;;;;24.27;19.10;;;6.50;99.90;;;;;;5072066;28;20059;-73
2021/10/17 02:10:32;;;;;;;23.85;18.38;;;6.50;99.90;;;;;;5052033;28;20029;-72
2021/10/17 02:12:58;;;;;;;21.98;17.98;;;6.50;99.90;;;;;;5052358;28;20036;-72
2021/10/17 02:15:24;;;;;;;23.23;18.83;;;6.50;99.90;;;;;;5071036;28;20017;-72
2021/10/17 02:17:49;;;;;;;21.75;17.35;;;6.60;99.90;;;;;;5060735;28;20036;-73
2021/10/17 02:20:15;;;;;;;21.67;17.30;;;6.50;99.90;;;;;;5047536;28;20111;-72
2021/10/17 02:22:41;;;;;;;21.25;16.00;;;6.60;99.90;;;;;;5068719;28;20025;-72
2021/10/17 02:25:07;;;;;;;20.17;16.63;;;6.60;99.90;;;;;;5068276;28;20100;-73
2021/10/17 02:27:33;;;;;;;20.13;16.52;;;6.60;99.90;;;;;;5089971;23;20041;-74
2021/10/17 02:29:59;;;;;;;18.92;16.45;;;6.60;99.90;;;;;;5070635;28;20039;-74
2021/10/17 02:32:24;;;;;;;21.60;17.17;;;6.60;99.90;;;;;;5069891;28;20025;-74
2021/10/17 02:34:50;;;;;;;21.38;17.30;;;6.50;99.90;;;;;;5040168;28;20020;-75
2021/10/17 02:37:15;;;;;;;19.58;16.15;;;6.50;99.90;;;;;;5051477;28;20420;-74
2021/10/17 02:39:41;;;;;;;19.73;15.80;;;6.50;99.90;;;;;;5073928;28;20025;-74
2021/10/17 02:42:07;;;;;;;20.00;16.63;;;6.50;99.90;;;;;;5072656;28;20053;-76
2021/10/17 02:44:32;;;;;;;20.13;17.10;;;6.40;99.90;;;;;;5073773;28;20084;-74
2021/10/17 02:46:58;;;;;;;22.38;17.90;;;6.40;99.90;;;;;;5074069;28;20059;-74
2021/10/17 02:49:25;;;;;;;21.67;16.73;;;6.40;99.90;;;;;;5067698;28;20021;-75
2021/10/17 02:51:51;;;;;;;20.77;17.08;;;6.50;99.90;;;;;;5048356;28;20064;-75
2021/10/17 02:54:17;;;;;;;21.17;17.02;;;6.60;99.90;;;;;;5066868;28;20035;-74
2021/10/17 02:56:43;;;;;;;20.23;16.92;;;6.60;99.90;;;;;;5060567;28;20393;-74
2021/10/17 02:59:08;;;;;;;19.40;16.88;;;6.60;99.90;;;;;;5057783;28;20435;-73
2021/10/17 03:01:34;;;;;;;24.60;16.67;;;6.60;99.90;;;;;;5065835;28;20032;-73
2021/10/17 03:04:00;;;;;;;18.88;16.42;;;6.50;99.90;;;;;;5049598;28;20051;-72
2021/10/17 03:06:28;;;;;;;18.85;16.67;;;6.50;99.90;;;;;;5050413;28;20131;-74
2021/10/17 03:08:54;;;;;;;20.33;16.35;;;6.60;99.90;;;;;;5069098;28;20457;-74
2021/10/17 03:11:20;;;;;;;19.95;15.93;;;6.60;99.90;;;;;;5069364;28;20028;-73
2021/10/17 03:13:46;;;;;;;20.42;17.23;;;6.70;99.90;;;;;;5073708;28;20254;-75
2021/10/17 03:16:11;;;;;;;20.20;18.10;;;6.60;99.90;;;;;;5077573;28;20021;-73
2021/10/17 03:18:37;;;;;;;20.75;17.50;;;6.60;99.90;;;;;;5076892;28;20071;-73
2021/10/17 03:21:02;;;;;;;20.20;17.00;;;6.50;99.90;;;;;;5073711;28;20033;-73
2021/10/17 03:23:28;;;;;;;19.98;16.60;;;6.50;99.90;;;;;;5068954;28;20024;-75
2021/10/17 03:25:53;;;;;;;18.38;16.48;;;6.50;99.90;;;;;;5060202;28;20508;-76
2021/10/17 03:28:19;;;;;;;21.80;16.95;;;6.50;99.90;;;;;;5060016;28;20086;-74
2021/10/17 03:30:45;;;;;;;21.98;19.35;;;6.50;99.90;;;;;;5061288;28;20039;-75
2021/10/17 03:33:10;;;;;;;19.52;17.27;;;6.50;99.90;;;;;;5057231;28;20111;-74
2021/10/17 03:35:36;;;;;;;20.27;17.23;;;6.50;99.90;;;;;;5058297;28;20112;-74
2021/10/17 03:38:02;;;;;;;18.88;16.50;;;6.40;99.90;;;;;;5057045;28;20033;-75
2021/10/17 03:40:27;;;;;;;21.88;19.52;;;6.40;99.90;;;;;;5038368;28;20029;-74
2021/10/17 03:42:53;;;;;;;19.15;16.95;;;6.30;99.90;;;;;;5056101;28;20036;-73
2021/10/17 03:45:19;;;;;;;20.83;17.92;;;6.30;99.90;;;;;;5055669;28;20461;-74
2021/10/17 03:47:44;;;;;;;20.27;17.35;;;6.30;99.90;;;;;;5055563;28;20092;-74
2021/10/17 03:50:10;;;;;;;22.40;18.40;;;6.30;99.90;;;;;;5055259;28;20028;-73
2021/10/17 03:52:35;;;;;;;23.83;18.00;;;6.30;99.90;;;;;;5037697;28;20107;-74
2021/10/17 03:55:02;;;;;;;20.73;17.50;;;6.30;99.90;;;;;;5056971;28;20029;-74
2021/10/17 03:57:28;;;;;;;25.60;17.75;;;6.20;99.90;;;;;;5055931;28;20079;-74
2021/10/17 03:59:53;;;;;;;20.23;17.98;;;6.20;99.90;;;;;;5051743;28;20033;-74
2021/10/17 04:02:19;;;;;;;23.88;18.73;;;6.20;99.90;;;;;;5055694;28;20025;-74
2021/10/17 04:04:44;;;;;;;19.88;17.73;;;6.20;99.90;;;;;;5050937;28;20089;-75
2021/10/17 04:07:10;;;;;;;22.17;18.77;;;6.10;99.90;;;;;;5053755;28;20013;-75
2021/10/17 04:09:35;;;;;;;22.30;18.15;;;6.20;99.90;;;;;;5045958;28;20025;-73
2021/10/17 04:12:01;;;;;;;22.52;17.77;;;6.20;99.90;;;;;;5054141;28;20033;-75
2021/10/17 04:14:27;;;;;;;20.58;17.95;;;6.20;99.90;;;;;;5055490;28;20400;-73
2021/10/17 04:16:52;;;;;;;21.42;18.35;;;6.20;99.90;;;;;;5054261;28;20033;-74
2021/10/17 04:19:18;;;;;;;20.17;17.75;;;6.20;99.90;;;;;;5054453;28;20021;-74
2021/10/17 04:21:43;;;;;;;21.23;17.38;;;6.20;99.90;;;;;;5055304;28;20038;-73
2021/10/17 04:24:09;;;;;;;23.35;19.30;;;6.20;99.90;;;;;;5055296;28;20439;-74
2021/10/17 04:26:35;;;;;;;20.88;17.80;;;6.20;99.90;;;;;;5033540;28;20417;-73
2021/10/17 04:29:00;;;;;;;21.00;18.42;;;6.10;99.90;;;;;;5053346;28;20088;-73
2021/10/17 04:31:26;;;;;;;20.25;17.20;;;6.10;99.90;;;;;;5053809;28;20071;-74
2021/10/17 04:33:51;;;;;;;19.10;17.08;;;6.20;99.90;;;;;;5054047;28;20025;-74
2021/10/17 04:36:17;;;;;;;19.10;16.90;;;6.20;99.90;;;;;;5053091;28;20059;-74
2021/10/17 04:38:42;;;;;;;19.80;17.63;;;6.30;99.90;;;;;;5052811;28;20056;-74
2021/10/17 04:41:08;;;;;;;18.45;16.42;;;6.20;99.90;;;;;;5052889;28;20036;-74
2021/10/17 04:43:35;;;;;;;19.98;16.58;;;6.20;99.90;;;;;;5053073;28;20447;-74
2021/10/17 04:46:01;;;;;;;19.60;16.70;;;6.20;99.90;;;;;;5052954;28;20029;-74
2021/10/17 04:48:27;;;;;;;21.20;17.80;;;6.20;99.90;;;;;;5052856;28;20453;-74
2021/10/17 04:50:52;;;;;;;20.35;17.38;;;6.20;99.90;;;;;;5052427;28;20033;-74
2021/10/17 04:53:18;;;;;;;21.98;17.38;;;6.20;99.90;;;;;;5052437;28;20451;-74
2021/10/17 04:55:43;;;;;;;19.30;16.58;;;6.20;99.90;;;;;;5052083;28;20477;-75
2021/10/17 04:58:09;;;;;;;18.40;16.40;;;6.20;99.90;;;;;;5052354;28;20131;-73
2021/10/17 05:00:35;;;;;;;21.77;17.33;;;6.30;99.90;;;;;;5052442;28;20104;-74
2021/10/17 05:03:00;;;;;;;20.85;18.08;;;6.40;99.90;;;;;;5053507;28;20102;-74
2021/10/17 05:05:26;;;;;;;18.63;16.52;;;6.40;99.90;;;;;;5054097;28;20104;-73
2021/10/17 05:07:51;;;;;;;19.55;16.65;;;6.50;99.90;;;;;;5053497;28;20021;-74
2021/10/17 05:10:17;;;;;;;20.30;16.27;;;6.70;99.90;;;;;;5052493;28;20505;-74
2021/10/17 05:12:43;;;;;;;21.52;17.52;;;6.70;99.90;;;;;;5052194;28;20035;-76
2021/10/17 05:15:09;;;;;;;21.65;16.88;;;6.60;99.90;;;;;;5051976;28;20086;-74
2021/10/17 05:17:34;;;;;;;18.05;16.02;;;6.60;99.90;;;;;;5051092;28;20077;-74
2021/10/17 05:20:00;;;;;;;20.77;17.27;;;6.60;99.90;;;;;;5052048;28;20394;-73
2021/10/17 05:22:25;;;;;;;18.63;16.63;;;6.60;99.90;;;;;;5053954;28;20029;-74
2021/10/17 05:24:51;;;;;;;18.92;15.98;;;6.70;99.90;;;;;;5056504;28;20024;-73
2021/10/17 05:27:16;;;;;;;17.45;15.57;;;6.70;99.90;;;;;;5062159;28;20029;-73
2021/10/17 05:29:42;;;;;;;15.35;13.70;;;6.70;99.90;;;;;;5075770;28;20025;-73
2021/10/17 05:32:07;;;;;;;17.67;13.95;;;6.70;99.90;;;;;;5064043;28;20043;-73
2021/10/17 05:34:33;;;;;;;14.57;13.07;;;6.60;99.90;;;;;;5062532;28;20527;-73
2021/10/17 05:36:58;;;;;;;15.32;13.75;;;6.60;99.90;;;;;;5074884;28;20013;-72
2021/10/17 05:39:24;;;;;;;17.30;13.02;;;6.50;99.90;;;;;;5068525;28;20025;-73
2021/10/17 05:41:49;;;;;;;14.98;13.15;;;6.40;99.90;;;;;;5058652;28;20033;-75
2021/10/17 05:44:15;;;;;;;14.60;13.15;;;6.40;99.90;;;;;;5070720;28;20017;-74
2021/10/17 05:46:40;;;;;;;15.50;13.40;;;6.20;99.90;;;;;;5075806;28;20039;-74
2021/10/17 05:49:06;;;;;;;17.63;13.30;;;6.10;99.90;;;;;;5073807;28;20083;-74
2021/10/17 05:51:32;;;;;;;19.02;13.57;;;6.20;99.90;;;;;;5061284;28;20082;-74
2021/10/17 05:53:57;;;;;;;16.60;14.85;;;6.10;99.90;;;;;;5055307;28;20025;-73
2021/10/17 05:56:23;;;;;;;20.42;13.35;;;6.20;99.90;;;;;;5063929;28;20029;-74
2021/10/17 05:58:48;;;;;;;14.75;12.82;;;6.20;99.90;;;;;;5053013;28;20029;-74
2021/10/17 06:01:14;;;;;;;16.33;14.35;;;6.20;99.90;;;;;;5034715;28;20151;-74
2021/10/17 06:03:39;;;;;;;15.73;14.02;;;6.30;99.90;;;;;;5052986;28;20477;-73
2021/10/17 06:06:06;;;;;;;15.10;13.45;;;6.30;99.90;;;;;;5032965;28;20067;-74
2021/10/17 06:08:31;;;;;;;14.82;13.18;;;6.40;99.90;;;;;;5056007;28;20024;-73
2021/10/17 06:10:57;;;;;;;15.68;13.50;;;6.40;99.90;;;;;;5056081;28;20021;-74
2021/10/17 06:13:23;;;;;;;13.55;12.18;;;6.40;99.90;;;;;;5066330;28;20092;-74
2021/10/17 06:15:49;;;;;;;13.90;12.45;;;6.40;99.90;;;;;;5077686;28;20033;-74
2021/10/17 06:18:15;;;;;;;15.98;12.98;;;6.40;99.90;;;;;;5078976;28;20095;-74
2021/10/17 06:20:41;;;;;;;14.93;12.55;;;6.40;99.90;;;;;;5079567;28;20032;-74
2021/10/17 06:23:06;;;;;;;14.10;12.60;;;6.50;99.90;;;;;;5076570;28;20036;-74
2021/10/17 06:25:32;;;;;;;16.23;13.30;;;6.60;99.90;;;;;;5072275;28;20048;-73
2021/10/17 06:27:57;;;;;;;17.98;13.25;;;6.70;99.90;;;;;;5062633;28;20052;-77
2021/10/17 06:30:23;;;;;;;15.00;13.23;;;6.60;99.90;;;;;;5042335;28;20082;-75
2021/10/17 06:32:48;;;;;;;14.73;12.20;;;6.60;99.90;;;;;;5056541;28;20032;-75
2021/10/17 06:35:14;;;;;;;15.40;13.80;;;6.60;99.90;;;;;;5056446;28;20075;-75
2021/10/17 06:37:41;;;;;;;13.68;12.13;;;6.60;99.90;;;;;;5058078;28;20112;-75
2021/10/17 06:40:07;;;;;;;19.70;13.75;;;6.70;99.90;;;;;;5056905;28;20029;-75
2021/10/17 06:42:32;;;;;;;18.70;13.93;;;6.90;99.90;;;;;;5057821;28;20025;-73
2021/10/17 06:44:58;;;;;;;20.58;13.73;;;6.90;99.90;;;;;;5059605;28;20103;-74
2021/10/17 06:47:23;;;;;;;18.58;14.30;;;7.00;99.90;;;;;;5055376;28;20028;-74
2021/10/17 06:49:49;;;;;;;18.83;15.32;;;7.00;99.90;;;;;;5055731;28;20074;-74
2021/10/17 06:52:15;;;;;;;16.77;14.50;;;6.90;99.90;;;;;;5055359;28;20519;-74
2021/10/17 06:54:40;;;;;;;20.48;14.23;;;7.00;99.90;;;;;;5067695;28;20068;-75
2021/10/17 06:57:06;;;;;;;19.38;13.43;;;7.00;99.90;;;;;;5058096;28;20040;-75
2021/10/17 06:59:31;;;;;;;14.18;12.75;;;7.00;99.90;;;;;;5036629;28;20033;-76
2021/10/17 07:01:57;;;;;;;15.43;13.38;;;6.90;99.90;;;;;;5056158;28;20039;-75
2021/10/17 07:04:22;;;;;;;16.75;14.27;;;6.90;99.90;;;;;;5055708;28;20025;-77
2021/10/17 07:06:48;;;;;;;15.80;14.10;;;7.00;99.90;;;;;;5035214;28;20396;-75
2021/10/17 07:09:14;;;;;;;15.30;13.70;;;7.10;99.90;;;;;;5055410;28;20050;-76
2021/10/17 07:11:39;;;;;;;14.88;13.35;;;7.10;99.90;;;;;;5054643;28;20107;-77
2021/10/17 07:14:05;;;;;;;15.48;13.88;;;7.00;99.90;;;;;;5037220;28;20116;-75
2021/10/17 07:16:31;;;;;;;15.13;13.57;;;7.10;99.90;;;;;;5052792;28;20025;-75
2021/10/17 07:18:56;;;;;;;14.00;12.52;;;7.20;99.90;;;;;;5054788;28;20071;-74
2021/10/17 07:21:22;;;;;;;14.88;13.18;;;7.20;99.90;;;;;;5054890;28;20029;-74
2021/10/17 07:23:47;;;;;;;13.98;12.60;;;7.30;99.90;;;;;;5055325;28;20025;-74
2021/10/17 07:26:13;;;;;;;13.88;12.45;;;7.30;99.90;;;;;;5055547;28;20040;-75
2021/10/17 07:28:39;;;;;;;14.20;12.73;;;7.30;99.90;;;;;;5039445;28;20025;-74
2021/10/17 07:31:05;;;;;;;12.52;11.23;;;7.40;99.90;;;;;;5056485;28;20460;-74
2021/10/17 07:33:30;;;;;;;11.88;10.32;;;7.30;99.90;;;;;;5055667;28;20025;-75
2021/10/17 07:35:56;;;;;;;12.35;11.15;;;7.20;99.90;;;;;;5053417;28;20037;-75
2021/10/17 07:38:21;;;;;;;12.57;11.30;;;7.20;99.90;;;;;;5055333;28;20155;-74
2021/10/17 07:40:47;;;;;;;12.48;10.98;;;7.20;99.90;;;;;;5053687;28;20033;-74
2021/10/17 07:43:12;;;;;;;13.18;11.98;;;7.20;99.90;;;;;;5055469;28;20021;-75
2021/10/17 07:45:38;;;;;;;13.77;12.38;;;7.20;99.90;;;;;;5054605;28;20070;-74
2021/10/17 07:48:04;;;;;;;14.63;12.18;;;7.20;99.90;;;;;;5055193;28;20028;-74
2021/10/17 07:50:30;;;;;;;14.57;13.13;;;7.40;99.90;;;;;;5055385;28;20069;-75
2021/10/17 07:52:55;;;;;;;13.27;11.98;;;7.50;99.90;;;;;;5054381;28;20041;-74
2021/10/17 07:55:21;;;;;;;19.52;13.80;;;7.40;99.90;;;;;;5055023;28;20021;-76
2021/10/17 07:57:50;;;;;;;13.32;11.82;;;7.50;99.90;;;;;;5054301;28;20028;-75
2021/10/17 08:00:21;;;;;;;13.95;12.52;;;7.50;99.90;;;;;;5054243;28;20511;-75
2021/10/17 08:02:47;;;;;;;14.65;13.05;;;7.50;99.90;;;;;;5054589;28;20389;-73
2021/10/17 08:05:12;;;;;;;16.88;13.68;;;7.70;99.90;;;;;;5055358;28;20036;-76
2021/10/17 08:07:38;;;;;;;15.50;12.80;;;7.70;99.90;;;;;;5054993;28;20032;-73
2021/10/17 08:10:05;;;;;;;14.57;12.65;;;7.70;99.90;;;;;;5055399;28;20078;-72
2021/10/17 08:12:30;;;;;;;15.68;14.00;;;7.60;99.90;;;;;;5053618;28;20045;-74
2021/10/17 08:14:56;;;;;;;15.98;14.35;;;7.70;99.90;;;;;;5051717;28;20106;-72
2021/10/17 08:17:21;;;;;;;18.52;14.52;;;8.20;99.90;;;;;;5050425;28;20448;-73
2021/10/17 08:19:47;;;;;;;16.75;13.68;;;8.20;99.90;;;;;;5047506;28;20029;-75
2021/10/17 08:22:12;;;;;;;16.35;14.65;;;8.00;99.90;;;;;;5055575;28;20034;-75
2021/10/17 08:24:38;;;;;;;16.80;13.88;;;7.80;99.90;;;;;;5053801;28;20029;-74
2021/10/17 08:27:04;;;;;;;16.73;13.27;;;7.80;99.90;;;;;;5072690;23;20445;-74
2021/10/17 08:29:29;;;;;;;16.73;14.32;;;7.70;99.90;;;;;;5054296;28;20033;-73
2021/10/17 08:31:55;;;;;;;15.80;14.10;;;8.00;99.90;;;;;;5048060;28;20162;-73
2021/10/17 08:34:20;;;;;;;17.38;13.88;;;8.00;99.90;;;;;;5042713;28;20030;-72
2021/10/17 08:36:46;;;;;;;16.70;13.60;;;8.30;99.90;;;;;;5047641;28;20032;-73
2021/10/17 08:39:11;;;;;;;14.63;12.90;;;8.80;99.90;;;;;;5060184;28;20025;-73
2021/10/17 08:41:39;;;;;;;15.77;14.02;;;9.20;99.90;;;;;;5062911;28;20024;-72
2021/10/17 08:44:05;;;;;;;15.98;13.68;;;9.20;99.90;;;;;;5056348;28;20021;-71
2021/10/17 08:46:33;;;;;;;16.13;13.50;;;8.90;99.90;;;;;;5073549;28;20025;-73
2021/10/17 08:49:00;;;;;;;17.13;14.02;;;9.20;99.90;;;;;;5040820;28;20104;-75
2021/10/17 08:51:26;;;;;;;15.55;13.52;;;9.10;99.90;;;;;;5047853;28;20477;-72
2021/10/17 08:53:52;;;;;;;17.50;14.40;;;9.10;99.90;;;;;;5043308;28;20029;-71
2021/10/17 08:56:19;;;;;;;18.70;14.93;;;8.70;99.90;;;;;;5049132;28;20025;-72
2021/10/17 08:58:44;;;;;;;20.15;16.35;;;8.40;99.90;;;;;;5037915;28;20099;-72
2021/10/17 09:01:13;;;;;;;17.33;15.45;;;8.70;99.90;;;;;;5050130;28;20022;-72
2021/10/17 09:03:39;;;;;;;15.82;13.57;;;9.10;99.90;;;;;;5043150;28;20459;-72
2021/10/17 09:06:15;;;;;;;17.27;14.80;;;9.40;99.90;;;;;;5040689;28;20060;-73
2021/10/17 09:08:41;;;;;;;17.10;15.13;;;9.40;99.90;;;;;;5036544;28;20024;-72
2021/10/17 09:11:06;;;;;;;15.45;13.38;;;9.50;99.90;;;;;;5047134;28;20444;-74
2021/10/17 09:13:32;;;;;;;17.95;14.48;;;9.70;99.90;;;;;;5047485;28;20033;-72
2021/10/17 09:15:58;;;;;;;16.38;13.70;;;9.80;99.90;;;;;;5045204;28;20029;-73
2021/10/17 09:18:25;;;;;;;17.33;14.68;;;9.50;99.90;;;;;;5042071;28;20034;-72
2021/10/17 09:20:57;;;;;;;15.85;13.57;;;9.20;99.90;;;;;;5048825;28;20079;-72
2021/10/17 09:23:26;;;;;;;19.42;15.70;;;8.80;99.90;;;;;;5045696;28;20014;-71
2021/10/17 09:25:54;;;;;;;16.92;14.80;;;8.80;99.90;;;;;;5042417;28;20396;-72
2021/10/17 09:28:25;;;;;;;16.27;14.55;;;8.80;99.90;;;;;;5046317;28;20044;-71
2021/10/17 09:31:04;;;;;;;20.25;14.30;;;8.90;99.90;;;;;;5050844;28;20017;-72
2021/10/17 09:33:30;;;;;;;16.13;13.10;;;9.60;99.90;;;;;;5039780;28;20028;-74
2021/10/17 09:35:56;;;;;;;16.50;14.45;;;10.00;99.90;;;;;;5048057;28;20493;-72
2021/10/17 09:38:39;;;;;;;14.82;13.20;;;10.20;99.90;;;;;;5043837;28;20033;-71
2021/10/17 09:41:15;;;;;;;18.27;14.27;;;9.40;99.90;;;;;;5035634;28;20020;-72
2021/10/17 09:43:43;;;;;;;16.25;14.55;;;9.00;99.90;;;;;;5042435;28;20045;-71
2021/10/17 09:46:13;;;;;;;17.10;14.38;;;8.90;99.90;;;;;;5045545;28;20028;-71
2021/10/17 09:48:39;;;;;;;20.43;15.57;;;9.20;99.90;;;;;;5028754;28;20031;-71
2021/10/17 09:51:10;;;;;;;16.70;14.05;;;9.50;99.90;;;;;;5041189;28;20064;-71
2021/10/17 09:53:46;;;;;;;16.75;14.82;;;9.60;99.90;;;;;;5048069;28;20025;-72
2021/10/17 09:56:25;;;;;;;17.45;13.90;;;9.70;99.90;;;;;;5044802;28;20035;-72
2021/10/17 09:58:52;;;;;;;16.10;14.20;;;9.90;99.90;;;;;;5047085;28;20040;-71
2021/10/17 10:01:21;;;;;;;18.98;15.98;;;9.90;99.90;;;;;;5036108;28;20041;-72
2021/10/17 10:03:47;;;;;;;17.83;15.02;;;9.90;99.90;;;;;;5033405;28;20025;-71
2021/10/17 10:06:13;;;;;;;20.55;17.60;;;9.80;99.90;;;;;;5048105;28;20133;-72
2021/10/17 10:08:39;;;;;;;20.05;17.30;;;9.40;99.90;;;;;;5045063;28;20059;-72
2021/10/17 10:11:05;;;;;;;19.58;17.48;;;9.50;99.90;;;;;;5036676;28;20029;-73
2021/10/17 10:13:32;;;;;;;18.85;16.83;;;9.50;99.90;;;;;;5045380;28;20044;-71
2021/10/17 10:15:59;;;;;;;21.90;17.42;;;9.40;99.90;;;;;;5044987;28;20028;-72
2021/10/17 10:18:27;;;;;;;18.63;16.17;;;9.40;99.90;;;;;;5045984;28;20022;-72
2021/10/17 10:20:53;;;;;;;19.90;16.05;;;10.00;99.90;;;;;;5055631;28;20029;-72
2021/10/17 10:23:19;;;;;;;19.88;16.15;;;10.10;99.90;;;;;;5057602;28;20037;-71
2021/10/17 10:25:48;;;;;;;20.20;16.52;;;10.20;99.90;;;;;;5045612;28;20040;-72
2021/10/17 10:28:14;;;;;;;19.67;16.70;;;9.80;99.90;;;;;;5043139;28;20048;-72
2021/10/17 10:30:40;;;;;;;21.02;17.80;;;9.50;99.90;;;;;;5054400;28;20033;-70
2021/10/17 10:33:19;;;;;;;19.55;17.42;;;9.80;99.90;;;;;;5035649;28;20029;-72
2021/10/17 10:36:05;;;;;;;20.65;18.45;;;10.00;99.90;;;;;;5045797;28;20005;-72
2021/10/17 10:38:52;;;;;;;19.77;17.17;;;10.10;99.90;;;;;;5053078;28;20322;-73
2021/10/17 10:41:23;;;;;;;19.13;16.60;;;10.20;99.90;;;;;;5052904;28;20029;-72
2021/10/17 10:43:49;;;;;;;20.15;17.50;;;10.10;99.90;;;;;;5045776;28;20022;-74
2021/10/17 10:46:42;;;;;;;19.88;17.77;;;10.10;99.90;;;;;;5051539;28;20259;-74
2021/10/17 10:49:08;;;;;;;20.92;18.40;;;10.20;99.90;;;;;;5037423;28;20382;-74
2021/10/17 10:51:48;;;;;;;18.38;16.48;;;10.10;99.90;;;;;;5036004;28;20087;-72
2021/10/17 10:54:29;;;;;;;22.33;18.75;;;10.30;99.90;;;;;;5034003;28;20107;-73
2021/10/17 10:56:56;;;;;;;20.20;18.08;;;10.30;99.90;;;;;;5053400;28;20032;-72
2021/10/17 10:59:25;;;;;;;19.13;16.65;;;10.60;99.90;;;;;;5048525;28;20034;-72
2021/10/17 11:01:55;;;;;;;19.85;16.20;;;10.50;99.90;;;;;;5041464;28;20071;-72
2021/10/17 11:04:41;;;;;;;18.13;16.15;;;10.40;99.90;;;;;;5036989;28;20028;-73
2021/10/17 11:07:23;;;;;;;18.75;16.02;;;10.40;99.90;;;;;;5041948;28;20036;-72
2021/10/17 11:09:51;;;;;;;18.02;15.90;;;10.20;99.90;;;;;;5056609;28;20022;-74
2021/10/17 11:12:41;;;;;;;19.35;16.08;;;10.30;99.90;;;;;;5043030;28;20076;-73
2021/10/17 11:15:08;;;;;;;17.38;14.15;;;10.20;99.90;;;;;;5043963;28;20052;-72
2021/10/17 11:17:33;;;;;;;17.08;14.73;;;10.20;99.90;;;;;;5040054;28;20022;-73
2021/10/17 11:19:59;;;;;;;17.50;15.02;;;10.30;99.90;;;;;;5036235;28;20500;-73
2021/10/17 11:22:24;;;;;;;18.45;15.63;;;10.40;99.90;;;;;;5036237;28;20029;-74
2021/10/17 11:24:56;;;;;;;16.70;13.82;;;10.50;99.90;;;;;;5037253;28;20396;-72
2021/10/17 11:27:24;;;;;;;18.38;15.98;;;10.50;99.90;;;;;;5035740;28;20033;-72
2021/10/17 11:29:49;;;;;;;15.82;14.05;;;10.80;99.90;;;;;;5045719;28;20077;-73
2021/10/17 11:32:18;;;;;;;18.73;15.48;;;11.30;99.90;;;;;;5050935;28;20100;-73
2021/10/17 11:34:57;;;;;;;16.40;14.70;;;11.00;99.90;;;;;;5045662;28;20053;-72
2021/10/17 11:37:25;;;;;;;15.65;13.90;;;11.40;99.90;;;;;;5036062;28;20017;-72
2021/10/17 11:40:03;;;;;;;17.20;15.40;;;11.20;99.90;;;;;;5049764;28;20064;-73
2021/10/17 11:42:41;;;;;;;17.77;15.68;;;10.80;99.90;;;;;;5034905;28;20029;-73
2021/10/17 11:45:14;;;;;;;18.27;15.50;;;10.80;99.90;;;;;;5037037;28;20083;-73
2021/10/17 11:47:46;;;;;;;17.63;15.35;;;10.80;99.90;;;;;;5035914;28;20053;-74
2021/10/17 11:50:11;;;;;;;18.60;16.35;;;10.80;99.90;;;;;;5035688;28;20104;-73
2021/10/17 11:52:51;;;;;;;16.67;14.98;;;10.70;99.90;;;;;;5065923;28;20163;-73
2021/10/17 11:55:32;;;;;;;17.08;15.27;;;10.80;99.90;;;;;;5036234;28;20017;-71
2021/10/17 11:57:59;;;;;;;19.80;15.82;;;10.90;99.90;;;;;;5036113;28;20036;-73
2021/10/17 12:00:30;;;;;;;20.55;16.27;;;11.20;99.90;;;;;;5045955;28;20415;-73
2021/10/17 12:02:56;;;;;;;18.70;16.05;;;11.10;99.90;;;;;;5049261;28;20105;-72
2021/10/17 12:05:25;;;;;;;19.20;16.83;;;11.20;99.90;;;;;;5039361;28;20100;-71
2021/10/17 12:07:55;;;;;;;19.38;15.38;;;11.00;99.90;;;;;;5044152;28;20017;-72
2021/10/17 12:10:21;;;;;;;18.88;16.30;;;11.10;99.90;;;;;;5063037;28;20115;-73
2021/10/17 12:12:48;;;;;;;17.33;15.52;;;11.40;99.90;;;;;;5039619;28;20529;-72
2021/10/17 12:15:15;;;;;;;18.30;16.35;;;11.80;99.90;;;;;;5043514;28;20029;-72
2021/10/17 12:17:41;;;;;;;20.73;16.48;;;12.00;99.90;;;;;;5046944;28;20025;-72
2021/10/17 12:20:13;;;;;;;19.63;15.85;;;11.70;99.90;;;;;;5040974;28;20025;-71
2021/10/17 12:22:46;;;;;;;17.40;15.38;;;11.40;99.90;;;;;;5044984;28;20021;-72
2021/10/17 12:25:17;;;;;;;18.08;15.05;;;11.80;99.90;;;;;;5053359;28;20117;-72
2021/10/17 12:27:44;;;;;;;18.65;15.52;;;11.20;99.90;;;;;;5038196;28;20066;-73
2021/10/17 12:30:25;;;;;;;18.90;16.38;;;11.00;99.90;;;;;;5045299;28;20032;-73
2021/10/17 12:32:54;;;;;;;21.30;15.65;;;11.50;99.90;;;;;;5045473;28;20033;-72
2021/10/17 12:35:25;;;;;;;21.42;17.45;;;11.30;99.90;;;;;;5029881;28;20030;-71